sensor_id;sensor_type;location;lat;lon;timestamp;pressure;altitude;pressure_sealevel;temperature;humidity
20696;BME280;10507;52.754;13.040;2022-10-26T00:01:37;101531.06;;;8.21;100.00
20696;BME280;10507;52.754;13.040;2022-10-26T00:04:05;101530.34;;;8.15;100.00
20696;BME280;10507;52.754;13.040;2022-10-26T00:06:33;101520.66;;;8.12;100.00
20696;BME280;10507;52.754;13.040;2022-10-26T00:09:01;101511.97;;;8.05;100.00
20696;BME280;10507;52.754;13.040;2022-10-26T00:11:30;101530.53;;;8.07;100.00
20696;BME280;10507;52.754;13.040;2022-10-26T00:13:57;101537.75;;;8.02;100.00
20696;BME280;10507;52.754;13.040;2022-10-26T00:16:26;101541.41;;;7.98;100.00
20696;BME280;10507;52.754;13.040;2022-10-26T00:18:54;101559.16;;;7.96;100.00
20696;BME280;10507;52.754;13.040;2022-10-26T00:21:22;101603.41;;;8.00;100.00
20696;BME280;10507;52.754;13.040;2022-10-26T00:23:49;101619.28;;;8.03;100.00
20696;BME280;10507;52.754;13.040;2022-10-26T00:26:17;101630.81;;;8.03;100.00
20696;BME280;10507;52.754;13.040;2022-10-26T00:28:46;101625.59;;;7.99;100.00
20696;BME280;10507;52.754;13.040;2022-10-26T00:31:15;101600.06;;;7.91;100.00
20696;BME280;10507;52.754;13.040;2022-10-26T00:33:43;101619.56;;;7.90;100.00
20696;BME280;10507;52.754;13.040;2022-10-26T00:36:11;101675.16;;;8.01;100.00
20696;BME280;10507;52.754;13.040;2022-10-26T00:38:46;101713.00;;;8.14;100.00
20696;BME280;10507;52.754;13.040;2022-10-26T00:41:15;101675.94;;;8.06;100.00
20696;BME280;10507;52.754;13.040;2022-10-26T00:43:45;101576.38;;;7.81;100.00
20696;BME280;10507;52.754;13.040;2022-10-26T00:46:16;101564.97;;;7.76;100.00
20696;BME280;10507;52.754;13.040;2022-10-26T00:48:47;101515.59;;;7.65;100.00
20696;BME280;10507;52.754;13.040;2022-10-26T00:51:21;101470.78;;;7.50;100.00
20696;BME280;10507;52.754;13.040;2022-10-26T00:53:50;101440.81;;;7.45;100.00
20696;BME280;10507;52.754;13.040;2022-10-26T00:56:18;101445.31;;;7.41;100.00
20696;BME280;10507;52.754;13.040;2022-10-26T00:58:48;101477.16;;;7.44;100.00
20696;BME280;10507;52.754;13.040;2022-10-26T01:01:15;101538.81;;;7.57;100.00
20696;BME280;10507;52.754;13.040;2022-10-26T01:03:44;101567.16;;;7.58;100.00
20696;BME280;10507;52.754;13.040;2022-10-26T01:06:12;101649.13;;;7.77;100.00
20696;BME280;10507;52.754;13.040;2022-10-26T01:08:41;101722.19;;;7.99;100.00
20696;BME280;10507;52.754;13.040;2022-10-26T01:11:11;101687.00;;;7.88;100.00
20696;BME280;10507;52.754;13.040;2022-10-26T01:13:41;101611.25;;;7.67;100.00
20696;BME280;10507;52.754;13.040;2022-10-26T01:16:29;101599.84;;;7.62;100.00
20696;BME280;10507;52.754;13.040;2022-10-26T01:19:27;101620.22;;;7.63;100.00
20696;BME280;10507;52.754;13.040;2022-10-26T01:22:05;101648.47;;;7.67;100.00
20696;BME280;10507;52.754;13.040;2022-10-26T01:24:49;101651.16;;;7.65;100.00
20696;BME280;10507;52.754;13.040;2022-10-26T01:27:23;101650.34;;;7.62;100.00
20696;BME280;10507;52.754;13.040;2022-10-26T01:30:17;101688.38;;;7.65;100.00
20696;BME280;10507;52.754;13.040;2022-10-26T01:32:50;101723.66;;;7.72;100.00
20696;BME280;10507;52.754;13.040;2022-10-26T01:35:27;101715.78;;;7.69;100.00
20696;BME280;10507;52.754;13.040;2022-10-26T01:37:58;101673.47;;;7.58;100.00
20696;BME280;10507;52.754;13.040;2022-10-26T01:40:31;101653.16;;;7.54;100.00
20696;BME280;10507;52.754;13.040;2022-10-26T01:43:02;101723.75;;;7.69;100.00
20696;BME280;10507;52.754;13.040;2022-10-26T01:45:36;101708.78;;;7.63;100.00
20696;BME280;10507;52.754;13.040;2022-10-26T01:48:07;101657.66;;;7.50;100.00
20696;BME280;10507;52.754;13.040;2022-10-26T01:50:37;101620.63;;;7.43;100.00
20696;BME280;10507;52.754;13.040;2022-10-26T01:53:10;101601.28;;;7.36;100.00
20696;BME280;10507;52.754;13.040;2022-10-26T01:55:44;101595.97;;;7.38;100.00
20696;BME280;10507;52.754;13.040;2022-10-26T01:58:27;101583.66;;;7.32;100.00
20696;BME280;10507;52.754;13.040;2022-10-26T02:01:07;101632.97;;;7.45;100.00
20696;BME280;10507;52.754;13.040;2022-10-26T02:03:44;101689.44;;;7.57;100.00
20696;BME280;10507;52.754;13.040;2022-10-26T02:06:18;101673.66;;;7.49;100.00
20696;BME280;10507;52.754;13.040;2022-10-26T02:08:57;101661.28;;;7.46;100.00
20696;BME280;10507;52.754;13.040;2022-10-26T02:11:35;101657.81;;;7.44;100.00
20696;BME280;10507;52.754;13.040;2022-10-26T02:14:12;101659.56;;;7.44;100.00
20696;BME280;10507;52.754;13.040;2022-10-26T02:16:52;101732.72;;;7.62;100.00
20696;BME280;10507;52.754;13.040;2022-10-26T02:19:32;101768.88;;;7.70;100.00
20696;BME280;10507;52.754;13.040;2022-10-26T02:22:08;101775.03;;;7.74;100.00
20696;BME280;10507;52.754;13.040;2022-10-26T02:24:39;101727.38;;;7.63;100.00
20696;BME280;10507;52.754;13.040;2022-10-26T02:27:11;101649.78;;;7.46;100.00
20696;BME280;10507;52.754;13.040;2022-10-26T02:29:41;101631.31;;;7.40;100.00
20696;BME280;10507;52.754;13.040;2022-10-26T02:32:12;101714.28;;;7.56;100.00
20696;BME280;10507;52.754;13.040;2022-10-26T02:34:43;101725.78;;;7.56;100.00
20696;BME280;10507;52.754;13.040;2022-10-26T02:37:14;101702.03;;;7.47;100.00
20696;BME280;10507;52.754;13.040;2022-10-26T02:39:46;101717.94;;;7.48;100.00
20696;BME280;10507;52.754;13.040;2022-10-26T02:42:17;101749.72;;;7.55;100.00
20696;BME280;10507;52.754;13.040;2022-10-26T02:44:48;101725.97;;;7.45;100.00
20696;BME280;10507;52.754;13.040;2022-10-26T02:47:21;101686.38;;;7.33;100.00
20696;BME280;10507;52.754;13.040;2022-10-26T02:49:49;101673.13;;;7.30;100.00
20696;BME280;10507;52.754;13.040;2022-10-26T02:52:21;101667.06;;;7.25;100.00
20696;BME280;10507;52.754;13.040;2022-10-26T02:54:53;101630.06;;;7.16;100.00
20696;BME280;10507;52.754;13.040;2022-10-26T02:57:28;101635.31;;;7.17;100.00
20696;BME280;10507;52.754;13.040;2022-10-26T02:59:58;101607.19;;;7.08;100.00
20696;BME280;10507;52.754;13.040;2022-10-26T03:02:28;101582.47;;;7.05;100.00
20696;BME280;10507;52.754;13.040;2022-10-26T03:05:05;101571.88;;;7.03;100.00
20696;BME280;10507;52.754;13.040;2022-10-26T03:07:35;101571.00;;;7.03;100.00
20696;BME280;10507;52.754;13.040;2022-10-26T03:10:04;101512.03;;;6.89;100.00
20696;BME280;10507;52.754;13.040;2022-10-26T03:12:31;101467.03;;;6.81;100.00
20696;BME280;10507;52.754;13.040;2022-10-26T03:14:59;101443.22;;;6.78;100.00
20696;BME280;10507;52.754;13.040;2022-10-26T03:17:28;101468.72;;;6.85;100.00
20696;BME280;10507;52.754;13.040;2022-10-26T03:19:56;101459.84;;;6.86;100.00
20696;BME280;10507;52.754;13.040;2022-10-26T03:22:24;101413.19;;;6.76;100.00
20696;BME280;10507;52.754;13.040;2022-10-26T03:24:51;101403.56;;;6.70;100.00
20696;BME280;10507;52.754;13.040;2022-10-26T03:27:19;101403.63;;;6.69;100.00
20696;BME280;10507;52.754;13.040;2022-10-26T03:29:47;101413.34;;;6.68;100.00
20696;BME280;10507;52.754;13.040;2022-10-26T03:32:15;101442.50;;;6.70;100.00
20696;BME280;10507;52.754;13.040;2022-10-26T03:34:44;101472.53;;;6.72;100.00
20696;BME280;10507;52.754;13.040;2022-10-26T03:37:12;101470.84;;;6.69;100.00
20696;BME280;10507;52.754;13.040;2022-10-26T03:39:39;101474.44;;;6.66;100.00
20696;BME280;10507;52.754;13.040;2022-10-26T03:42:07;101469.22;;;6.62;100.00
20696;BME280;10507;52.754;13.040;2022-10-26T03:44:35;101470.09;;;6.62;100.00
20696;BME280;10507;52.754;13.040;2022-10-26T03:47:02;101475.38;;;6.62;100.00
20696;BME280;10507;52.754;13.040;2022-10-26T03:49:30;101503.66;;;6.63;100.00
20696;BME280;10507;52.754;13.040;2022-10-26T03:51:59;101506.38;;;6.60;100.00
20696;BME280;10507;52.754;13.040;2022-10-26T03:54:27;101533.78;;;6.61;100.00
20696;BME280;10507;52.754;13.040;2022-10-26T03:56:55;101556.78;;;6.62;100.00
20696;BME280;10507;52.754;13.040;2022-10-26T03:59:24;101568.31;;;6.59;100.00
20696;BME280;10507;52.754;13.040;2022-10-26T04:01:52;101551.66;;;6.51;100.00
20696;BME280;10507;52.754;13.040;2022-10-26T04:04:23;101537.63;;;6.44;100.00
20696;BME280;10507;52.754;13.040;2022-10-26T04:06:51;101543.06;;;6.38;100.00
20696;BME280;10507;52.754;13.040;2022-10-26T04:09:20;101518.41;;;6.32;100.00
20696;BME280;10507;52.754;13.040;2022-10-26T04:11:48;101529.97;;;6.28;100.00
20696;BME280;10507;52.754;13.040;2022-10-26T04:14:16;101529.16;;;6.26;100.00
20696;BME280;10507;52.754;13.040;2022-10-26T04:16:44;101538.91;;;6.23;100.00
20696;BME280;10507;52.754;13.040;2022-10-26T04:19:12;101575.03;;;6.31;100.00
20696;BME280;10507;52.754;13.040;2022-10-26T04:21:39;101563.66;;;6.24;100.00
20696;BME280;10507;52.754;13.040;2022-10-26T04:24:08;101606.78;;;6.34;100.00
20696;BME280;10507;52.754;13.040;2022-10-26T04:26:38;101664.03;;;6.47;100.00
20696;BME280;10507;52.754;13.040;2022-10-26T04:29:06;101693.06;;;6.56;100.00
20696;BME280;10507;52.754;13.040;2022-10-26T04:31:34;101719.50;;;6.62;100.00
20696;BME280;10507;52.754;13.040;2022-10-26T04:34:02;101658.72;;;6.49;100.00
20696;BME280;10507;52.754;13.040;2022-10-26T04:36:30;101670.19;;;6.49;100.00
20696;BME280;10507;52.754;13.040;2022-10-26T04:38:57;101701.06;;;6.55;100.00
20696;BME280;10507;52.754;13.040;2022-10-26T04:41:25;101715.16;;;6.57;100.00
20696;BME280;10507;52.754;13.040;2022-10-26T04:43:55;101665.88;;;6.43;100.00
20696;BME280;10507;52.754;13.040;2022-10-26T04:46:23;101638.59;;;6.37;100.00
20696;BME280;10507;52.754;13.040;2022-10-26T04:48:50;101619.19;;;6.33;100.00
20696;BME280;10507;52.754;13.040;2022-10-26T04:51:18;101615.66;;;6.33;100.00
20696;BME280;10507;52.754;13.040;2022-10-26T04:53:46;101610.44;;;6.28;100.00
20696;BME280;10507;52.754;13.040;2022-10-26T04:56:14;101598.09;;;6.26;100.00
20696;BME280;10507;52.754;13.040;2022-10-26T04:58:41;101613.09;;;6.28;100.00
20696;BME280;10507;52.754;13.040;2022-10-26T05:01:10;101652.78;;;6.33;100.00
20696;BME280;10507;52.754;13.040;2022-10-26T05:03:38;101776.16;;;6.61;100.00
20696;BME280;10507;52.754;13.040;2022-10-26T05:06:06;101838.69;;;6.79;100.00
20696;BME280;10507;52.754;13.040;2022-10-26T05:08:34;101887.13;;;6.92;100.00
20696;BME280;10507;52.754;13.040;2022-10-26T05:11:01;101910.06;;;6.98;100.00
20696;BME280;10507;52.754;13.040;2022-10-26T05:13:29;101918.03;;;6.98;100.00
20696;BME280;10507;52.754;13.040;2022-10-26T05:15:57;101942.75;;;7.01;100.00
20696;BME280;10507;52.754;13.040;2022-10-26T05:18:26;101938.41;;;6.97;100.00
20696;BME280;10507;52.754;13.040;2022-10-26T05:20:54;101942.75;;;7.01;100.00
20696;BME280;10507;52.754;13.040;2022-10-26T05:23:25;101896.94;;;6.87;100.00
20696;BME280;10507;52.754;13.040;2022-10-26T05:25:54;101890.84;;;6.80;100.00
20696;BME280;10507;52.754;13.040;2022-10-26T05:28:26;101833.53;;;6.67;100.00
20696;BME280;10507;52.754;13.040;2022-10-26T05:30:57;101763.91;;;6.50;100.00
20696;BME280;10507;52.754;13.040;2022-10-26T05:33:27;101666.22;;;6.22;100.00
20696;BME280;10507;52.754;13.040;2022-10-26T05:35:55;101628.38;;;6.12;100.00
20696;BME280;10507;52.754;13.040;2022-10-26T05:38:24;101616.00;;;6.10;100.00
20696;BME280;10507;52.754;13.040;2022-10-26T05:40:52;101617.84;;;6.06;100.00
20696;BME280;10507;52.754;13.040;2022-10-26T05:43:22;101616.06;;;6.08;100.00
20696;BME280;10507;52.754;13.040;2022-10-26T05:45:50;101632.84;;;6.09;100.00
20696;BME280;10507;52.754;13.040;2022-10-26T05:48:18;101665.44;;;6.14;100.00
20696;BME280;10507;52.754;13.040;2022-10-26T05:50:47;101697.25;;;6.17;100.00
20696;BME280;10507;52.754;13.040;2022-10-26T05:53:15;101737.75;;;6.27;100.00
20696;BME280;10507;52.754;13.040;2022-10-26T05:55:44;101738.66;;;6.26;100.00
20696;BME280;10507;52.754;13.040;2022-10-26T05:58:13;101794.19;;;6.36;100.00
20696;BME280;10507;52.754;13.040;2022-10-26T06:00:51;101831.16;;;6.47;100.00
20696;BME280;10507;52.754;13.040;2022-10-26T06:03:33;101858.44;;;6.57;100.00
20696;BME280;10507;52.754;13.040;2022-10-26T06:06:10;101783.50;;;6.41;100.00
20696;BME280;10507;52.754;13.040;2022-10-26T06:08:40;101868.13;;;6.61;100.00
20696;BME280;10507;52.754;13.040;2022-10-26T06:11:10;101817.84;;;6.50;100.00
20696;BME280;10507;52.754;13.040;2022-10-26T06:13:38;101820.41;;;6.56;100.00
20696;BME280;10507;52.754;13.040;2022-10-26T06:16:18;101755.09;;;6.49;100.00
20696;BME280;10507;52.754;13.040;2022-10-26T06:18:58;101776.16;;;6.61;100.00
20696;BME280;10507;52.754;13.040;2022-10-26T06:21:42;101762.72;;;6.71;100.00
20696;BME280;10507;52.754;13.040;2022-10-26T06:24:21;101715.84;;;6.70;100.00
20696;BME280;10507;52.754;13.040;2022-10-26T06:26:57;101745.63;;;6.87;100.00
20696;BME280;10507;52.754;13.040;2022-10-26T06:29:40;101810.44;;;7.28;100.00
20696;BME280;10507;52.754;13.040;2022-10-26T06:32:10;101886.44;;;7.86;100.00
20696;BME280;10507;52.754;13.040;2022-10-26T06:34:43;101830.72;;;8.24;100.00
20696;BME280;10507;52.754;13.040;2022-10-26T06:37:14;101731.72;;;8.50;100.00
20696;BME280;10507;52.754;13.040;2022-10-26T06:39:45;101621.97;;;8.74;100.00
20696;BME280;10507;52.754;13.040;2022-10-26T06:42:18;101549.25;;;9.04;100.00
20696;BME280;10507;52.754;13.040;2022-10-26T06:44:47;101469.72;;;9.20;100.00
20696;BME280;10507;52.754;13.040;2022-10-26T06:47:19;101475.56;;;9.59;100.00
20696;BME280;10507;52.754;13.040;2022-10-26T06:49:57;101444.44;;;9.86;100.00
20696;BME280;10507;52.754;13.040;2022-10-26T06:52:34;101364.53;;;9.83;100.00
20696;BME280;10507;52.754;13.040;2022-10-26T06:55:12;101330.50;;;9.90;100.00
20696;BME280;10507;52.754;13.040;2022-10-26T06:57:42;101302.16;;;9.87;100.00
20696;BME280;10507;52.754;13.040;2022-10-26T07:00:19;101293.00;;;9.94;100.00
20696;BME280;10507;52.754;13.040;2022-10-26T07:02:47;101284.66;;;10.04;100.00
20696;BME280;10507;52.754;13.040;2022-10-26T07:05:16;101252.13;;;9.94;100.00
20696;BME280;10507;52.754;13.040;2022-10-26T07:07:46;101277.81;;;9.96;100.00
20696;BME280;10507;52.754;13.040;2022-10-26T07:10:15;101290.63;;;10.10;100.00
20696;BME280;10507;52.754;13.040;2022-10-26T07:12:43;101324.88;;;10.23;100.00
20696;BME280;10507;52.754;13.040;2022-10-26T07:15:10;101335.03;;;10.36;100.00
20696;BME280;10507;52.754;13.040;2022-10-26T07:17:42;101313.03;;;10.53;100.00
20696;BME280;10507;52.754;13.040;2022-10-26T07:20:12;101310.75;;;10.66;100.00
20696;BME280;10507;52.754;13.040;2022-10-26T07:22:40;101329.75;;;10.80;100.00
20696;BME280;10507;52.754;13.040;2022-10-26T07:25:13;101316.19;;;10.85;100.00
20696;BME280;10507;52.754;13.040;2022-10-26T07:27:41;101322.13;;;10.93;100.00
20696;BME280;10507;52.754;13.040;2022-10-26T07:30:10;101297.22;;;10.93;100.00
20696;BME280;10507;52.754;13.040;2022-10-26T07:32:38;101292.00;;;10.90;100.00
20696;BME280;10507;52.754;13.040;2022-10-26T07:35:06;101299.06;;;10.91;100.00
20696;BME280;10507;52.754;13.040;2022-10-26T07:37:35;101303.47;;;10.92;100.00
20696;BME280;10507;52.754;13.040;2022-10-26T07:40:04;101328.13;;;10.98;100.00
20696;BME280;10507;52.754;13.040;2022-10-26T07:42:34;101350.22;;;11.03;100.00
20696;BME280;10507;52.754;13.040;2022-10-26T07:45:10;101355.47;;;11.05;100.00
20696;BME280;10507;52.754;13.040;2022-10-26T07:47:46;101370.53;;;11.08;100.00
20696;BME280;10507;52.754;13.040;2022-10-26T07:50:19;101395.13;;;11.16;100.00
20696;BME280;10507;52.754;13.040;2022-10-26T07:52:52;101432.06;;;11.28;100.00
20696;BME280;10507;52.754;13.040;2022-10-26T07:55:30;101414.38;;;11.26;100.00
20696;BME280;10507;52.754;13.040;2022-10-26T07:57:59;101405.53;;;11.23;100.00
20696;BME280;10507;52.754;13.040;2022-10-26T08:00:27;101411.69;;;11.26;100.00
20696;BME280;10507;52.754;13.040;2022-10-26T08:02:55;101410.59;;;11.30;100.00
20696;BME280;10507;52.754;13.040;2022-10-26T08:05:23;101384.25;;;11.20;100.00
20696;BME280;10507;52.754;13.040;2022-10-26T08:07:51;101391.59;;;11.15;100.00
20696;BME280;10507;52.754;13.040;2022-10-26T08:10:19;101428.78;;;11.21;100.00
20696;BME280;10507;52.754;13.040;2022-10-26T08:12:47;101438.53;;;11.22;100.00
20696;BME280;10507;52.754;13.040;2022-10-26T08:15:16;101458.84;;;11.27;100.00
20696;BME280;10507;52.754;13.040;2022-10-26T08:17:43;101480.00;;;11.33;100.00
20696;BME280;10507;52.754;13.040;2022-10-26T08:20:12;101509.00;;;11.43;100.00
20696;BME280;10507;52.754;13.040;2022-10-26T08:22:40;101512.31;;;11.50;100.00
20696;BME280;10507;52.754;13.040;2022-10-26T08:25:12;101529.88;;;11.56;100.00
20696;BME280;10507;52.754;13.040;2022-10-26T08:27:45;101517.19;;;11.61;100.00
20696;BME280;10507;52.754;13.040;2022-10-26T08:30:13;101537.44;;;11.68;100.00
20696;BME280;10507;52.754;13.040;2022-10-26T08:32:43;101534.69;;;11.70;100.00
20696;BME280;10507;52.754;13.040;2022-10-26T08:35:11;101526.56;;;11.73;100.00
20696;BME280;10507;52.754;13.040;2022-10-26T08:37:39;101533.44;;;11.78;100.00
20696;BME280;10507;52.754;13.040;2022-10-26T08:40:10;101549.19;;;11.86;100.00
20696;BME280;10507;52.754;13.040;2022-10-26T08:42:44;101551.56;;;11.94;100.00
20696;BME280;10507;52.754;13.040;2022-10-26T08:45:22;101556.75;;;11.98;100.00
20696;BME280;10507;52.754;13.040;2022-10-26T08:48:06;101560.91;;;12.05;100.00
20696;BME280;10507;52.754;13.040;2022-10-26T08:50:41;101573.03;;;12.14;100.00
20696;BME280;10507;52.754;13.040;2022-10-26T08:53:17;101553.19;;;12.20;100.00
20696;BME280;10507;52.754;13.040;2022-10-26T08:55:51;101561.75;;;12.28;100.00
20696;BME280;10507;52.754;13.040;2022-10-26T08:58:22;101581.84;;;12.38;100.00
20696;BME280;10507;52.754;13.040;2022-10-26T09:00:54;101588.81;;;12.42;100.00
20696;BME280;10507;52.754;13.040;2022-10-26T09:03:25;101609.72;;;12.55;100.00
20696;BME280;10507;52.754;13.040;2022-10-26T09:06:19;101589.63;;;12.65;100.00
20696;BME280;10507;52.754;13.040;2022-10-26T09:08:57;101597.97;;;12.78;100.00
20696;BME280;10507;52.754;13.040;2022-10-26T09:11:56;101597.47;;;12.90;100.00
20696;BME280;10507;52.754;13.040;2022-10-26T09:14:34;101588.13;;;12.99;100.00
20696;BME280;10507;52.754;13.040;2022-10-26T09:17:11;101585.03;;;13.08;100.00
20696;BME280;10507;52.754;13.040;2022-10-26T09:22:56;101569.78;;;13.29;100.00
20696;BME280;10507;52.754;13.040;2022-10-26T09:25:33;101551.97;;;13.28;100.00
20696;BME280;10507;52.754;13.040;2022-10-26T09:28:10;101547.69;;;13.43;100.00
20696;BME280;10507;52.754;13.040;2022-10-26T09:30:42;101519.75;;;13.47;100.00
20696;BME280;10507;52.754;13.040;2022-10-26T09:33:14;101518.38;;;13.57;100.00
20696;BME280;10507;52.754;13.040;2022-10-26T09:35:47;101512.56;;;13.66;100.00
20696;BME280;10507;52.754;13.040;2022-10-26T09:38:22;101510.28;;;13.76;100.00
20696;BME280;10507;52.754;13.040;2022-10-26T09:40:55;101473.44;;;13.80;100.00
20696;BME280;10507;52.754;13.040;2022-10-26T09:43:27;101483.72;;;13.89;100.00
20696;BME280;10507;52.754;13.040;2022-10-26T09:45:56;101481.53;;;13.97;100.00
20696;BME280;10507;52.754;13.040;2022-10-26T09:48:30;101458.84;;;14.03;100.00
20696;BME280;10507;52.754;13.040;2022-10-26T09:51:00;101463.66;;;14.13;100.00
20696;BME280;10507;52.754;13.040;2022-10-26T09:53:31;101421.31;;;14.19;100.00
20696;BME280;10507;52.754;13.040;2022-10-26T09:56:02;101400.47;;;14.24;100.00
20696;BME280;10507;52.754;13.040;2022-10-26T09:58:34;101425.88;;;14.34;100.00
20696;BME280;10507;52.754;13.040;2022-10-26T10:01:03;101424.69;;;14.40;100.00
20696;BME280;10507;52.754;13.040;2022-10-26T10:03:31;101403.03;;;14.43;100.00
20696;BME280;10507;52.754;13.040;2022-10-26T10:06:17;101398.19;;;14.49;100.00
20696;BME280;10507;52.754;13.040;2022-10-26T10:09:04;101422.50;;;14.64;100.00
20696;BME280;10507;52.754;13.040;2022-10-26T10:11:37;101394.69;;;14.65;100.00
20696;BME280;10507;52.754;13.040;2022-10-26T10:14:07;101404.94;;;14.74;100.00
20696;BME280;10507;52.754;13.040;2022-10-26T10:16:35;101423.06;;;14.86;100.00
20696;BME280;10507;52.754;13.040;2022-10-26T10:19:03;101394.09;;;14.91;100.00
20696;BME280;10507;52.754;13.040;2022-10-26T10:21:33;101361.47;;;14.97;100.00
20696;BME280;10507;52.754;13.040;2022-10-26T10:24:21;101338.06;;;15.00;100.00
20696;BME280;10507;52.754;13.040;2022-10-26T10:26:58;101333.44;;;15.02;100.00
20696;BME280;10507;52.754;13.040;2022-10-26T10:29:27;101347.69;;;15.04;100.00
20696;BME280;10507;52.754;13.040;2022-10-26T10:31:56;101353.50;;;15.12;100.00
20696;BME280;10507;52.754;13.040;2022-10-26T10:34:25;101385.94;;;15.25;100.00
20696;BME280;10507;52.754;13.040;2022-10-26T10:36:53;101346.22;;;15.44;100.00
20696;BME280;10507;52.754;13.040;2022-10-26T10:39:34;101265.59;;;15.43;98.34
20696;BME280;10507;52.754;13.040;2022-10-26T10:42:15;101220.13;;;15.38;98.16
20696;BME280;10507;52.754;13.040;2022-10-26T10:44:44;101231.34;;;15.45;97.98
20696;BME280;10507;52.754;13.040;2022-10-26T10:47:20;101234.81;;;15.47;97.79
20696;BME280;10507;52.754;13.040;2022-10-26T10:49:58;101271.56;;;15.62;98.04
20696;BME280;10507;52.754;13.040;2022-10-26T10:52:30;101213.41;;;15.59;97.00
20696;BME280;10507;52.754;13.040;2022-10-26T10:55:13;101170.63;;;15.55;96.12
20696;BME280;10507;52.754;13.040;2022-10-26T10:57:53;101204.19;;;15.64;96.70
20696;BME280;10507;52.754;13.040;2022-10-26T11:00:23;101216.34;;;15.85;96.31
20696;BME280;10507;52.754;13.040;2022-10-26T11:03:13;101170.53;;;15.99;94.56
20696;BME280;10507;52.754;13.040;2022-10-26T11:05:59;101120.03;;;16.03;93.79
20696;BME280;10507;52.754;13.040;2022-10-26T11:08:32;101125.59;;;16.14;92.85
20696;BME280;10507;52.754;13.040;2022-10-26T11:11:07;101067.06;;;16.16;92.00
20696;BME280;10507;52.754;13.040;2022-10-26T11:13:38;101066.19;;;16.16;92.38
20696;BME280;10507;52.754;13.040;2022-10-26T11:16:12;101045.06;;;16.10;92.46
20696;BME280;10507;52.754;13.040;2022-10-26T11:18:51;101018.03;;;16.11;92.48
20696;BME280;10507;52.754;13.040;2022-10-26T11:21:24;100961.44;;;16.11;91.54
20696;BME280;10507;52.754;13.040;2022-10-26T11:24:04;100967.59;;;16.13;91.22
20696;BME280;10507;52.754;13.040;2022-10-26T11:26:48;100996.06;;;16.17;91.92
20696;BME280;10507;52.754;13.040;2022-10-26T11:29:32;101031.22;;;16.29;92.36
20696;BME280;10507;52.754;13.040;2022-10-26T11:32:14;100958.25;;;16.19;91.66
20696;BME280;10507;52.754;13.040;2022-10-26T11:34:57;100997.13;;;16.28;92.32
20696;BME280;10507;52.754;13.040;2022-10-26T11:37:52;100961.91;;;16.31;91.85
20696;BME280;10507;52.754;13.040;2022-10-26T11:40:28;100939.69;;;16.27;91.60
20696;BME280;10507;52.754;13.040;2022-10-26T11:43:13;100902.63;;;16.31;90.93
20696;BME280;10507;52.754;13.040;2022-10-26T11:45:45;100898.09;;;16.31;90.78
20696;BME280;10507;52.754;13.040;2022-10-26T11:48:22;100906.72;;;16.36;90.89
20696;BME280;10507;52.754;13.040;2022-10-26T11:50:53;100892.06;;;16.40;91.01
20696;BME280;10507;52.754;13.040;2022-10-26T11:53:25;100876.56;;;16.44;90.39
20696;BME280;10507;52.754;13.040;2022-10-26T11:55:55;100821.66;;;16.45;89.46
20696;BME280;10507;52.754;13.040;2022-10-26T11:58:27;100817.03;;;16.47;89.59
20696;BME280;10507;52.754;13.040;2022-10-26T12:00:59;100848.72;;;16.56;89.72
20696;BME280;10507;52.754;13.040;2022-10-26T12:03:31;100786.94;;;16.53;89.43
20696;BME280;10507;52.754;13.040;2022-10-26T12:06:01;100773.81;;;16.49;88.86
20696;BME280;10507;52.754;13.040;2022-10-26T12:08:32;100768.81;;;16.55;88.90
20696;BME280;10507;52.754;13.040;2022-10-26T12:11:07;100800.50;;;16.65;89.37
20696;BME280;10507;52.754;13.040;2022-10-26T12:13:41;100826.88;;;16.72;89.59
20696;BME280;10507;52.754;13.040;2022-10-26T12:16:18;100752.47;;;16.70;88.50
20696;BME280;10507;52.754;13.040;2022-10-26T12:18:52;100762.06;;;16.74;88.71
20696;BME280;10507;52.754;13.040;2022-10-26T12:21:25;100729.47;;;16.77;88.08
20696;BME280;10507;52.754;13.040;2022-10-26T12:24:00;100726.59;;;16.80;88.69
20696;BME280;10507;52.754;13.040;2022-10-26T12:26:50;100733.50;;;16.84;88.46
20696;BME280;10507;52.754;13.040;2022-10-26T12:29:37;100671.81;;;16.79;87.35
20696;BME280;10507;52.754;13.040;2022-10-26T12:35:40;100662.81;;;16.79;88.05
20696;BME280;10507;52.754;13.040;2022-10-26T12:41:27;100659.69;;;16.85;87.45
20696;BME280;10507;52.754;13.040;2022-10-26T12:44:33;100691.34;;;16.94;87.87
20696;BME280;10507;52.754;13.040;2022-10-26T12:47:02;100651.75;;;16.95;87.45
20696;BME280;10507;52.754;13.040;2022-10-26T12:52:42;100624.66;;;16.96;86.69
20696;BME280;10507;52.754;13.040;2022-10-26T12:55:28;100592.53;;;16.93;86.40
20696;BME280;10507;52.754;13.040;2022-10-26T13:07:19;100551.59;;;16.99;85.88
20696;BME280;10507;52.754;13.040;2022-10-26T13:09:54;100576.38;;;17.04;86.83
20696;BME280;10507;52.754;13.040;2022-10-26T13:12:24;100568.41;;;17.03;86.26
20696;BME280;10507;52.754;13.040;2022-10-26T13:14:58;100553.81;;;17.06;86.63
20696;BME280;10507;52.754;13.040;2022-10-26T13:17:30;100574.19;;;17.10;86.71
20696;BME280;10507;52.754;13.040;2022-10-26T13:19:59;100545.97;;;17.02;86.99
20696;BME280;10507;52.754;13.040;2022-10-26T13:22:28;100554.81;;;17.04;86.93
20696;BME280;10507;52.754;13.040;2022-10-26T13:27:57;100535.44;;;17.11;86.41
20696;BME280;10507;52.754;13.040;2022-10-26T13:31:19;100517.88;;;17.05;86.22